Grasten, Denmark
Current Conditions -  °F | °C
As of 4:36 PM on Saturday 20 Dec 2014 (Local Time) from ETGG Reporting Station
Broken Clouds Broken Clouds  
Wind Chill: 29°   Ceiling: 5000
Heat Index: 41°   Visibility: 6mi
Dew Point: 36°   Wind: 36mph
Humidity: 81%   Direction: 310°NW
Pressure: 29.62"   Gusts: 47mph
Location:  54.92°N, 9.6°E
Report Text: ETGG 201536Z 31031G41KT 9999 SCT024CB BKN050 05/02 Q1003 BLU
Loading
Personal Weather Stations






























Interactive Weather Map New forecast layout! Learn more

10-Day Weather Forecast

Advertisements
Track Severe Weather on mobile